Time;durP1;ratioP1;P1;durP2;ratioP2;P2;SDS_P1;SDS_P2;PMS_P1;PMS_P2;Temp;Humidity;BMP_temperature;BMP_pressure;BME280_temperature;BME280_humidity;BME280_pressure;Samples;Min_cycle;Max_cycle;Signal;HPM_P1;HPM_P2
2023/03/06 00:02:17;;;;;;;26.30;14.77;;;;;;;3.15;82.40;94073.97;5005597;28;20298;-85
2023/03/06 00:04:44;;;;;;;33.77;16.40;;;;;;;3.15;81.84;94068.84;5001304;28;20210;-86
2023/03/06 00:07:11;;;;;;;29.33;14.70;;;;;;;3.17;82.14;94074.63;5004806;28;20235;-86
2023/03/06 00:09:37;;;;;;;24.93;13.93;;;;;;;3.04;82.41;94050.59;5008186;28;20211;-89
2023/03/06 00:12:05;;;;;;;21.90;13.17;;;;;;;3.14;82.09;94057.00;5001041;28;20208;-91
2023/03/06 00:14:32;;;;;;;23.20;12.67;;;;;;;3.14;81.97;94051.88;5006109;28;20909;-87
2023/03/06 00:17:00;;;;;;;26.40;13.93;;;;;;;3.16;82.43;94055.03;5002238;28;20216;-87
2023/03/06 00:19:27;;;;;;;24.57;13.57;;;;;;;3.02;82.67;94040.53;5008490;28;20238;-86
2023/03/06 00:21:54;;;;;;;23.17;13.50;;;;;;;3.18;82.17;94071.03;5006611;28;20302;-91
2023/03/06 00:24:21;;;;;;;26.13;14.20;;;;;;;3.10;82.08;94048.09;5009223;28;20211;-89
2023/03/06 00:26:48;;;;;;;22.53;13.53;;;;;;;3.08;82.36;94051.81;5002021;28;20200;-89
2023/03/06 00:29:15;;;;;;;20.60;13.07;;;;;;;3.13;82.84;94068.25;5000827;28;21140;-91
2023/03/06 00:31:45;;;;;;;27.53;14.23;;;;;;;3.00;82.69;94049.41;5002356;28;20231;-85
2023/03/06 00:34:13;;;;;;;23.57;12.80;;;;;;;2.81;82.52;94022.63;4998010;28;20212;-87
2023/03/06 00:36:40;;;;;;;22.10;12.07;;;;;;;3.14;82.24;94049.31;5002826;28;20211;-84
2023/03/06 00:39:07;;;;;;;24.73;12.43;;;;;;;3.06;82.14;94038.41;5002084;28;21460;-86
2023/03/06 00:41:34;;;;;;;21.97;12.00;;;;;;;3.08;81.82;94037.22;5005759;28;20229;-85
2023/03/06 00:44:01;;;;;;;25.67;13.50;;;;;;;3.15;81.95;94048.31;4999394;28;20211;-88
2023/03/06 00:46:27;;;;;;;21.53;13.33;;;;;;;3.18;81.45;94053.06;5006340;28;20209;-85
2023/03/06 00:49:00;;;;;;;25.10;14.00;;;;;;;3.03;82.01;94020.81;5003921;28;20229;-86
2023/03/06 00:51:28;;;;;;;22.27;12.90;;;;;;;3.29;81.24;94049.22;5001784;28;20242;-86
2023/03/06 00:53:55;;;;;;;22.87;13.57;;;;;;;3.35;81.21;94062.06;5008223;28;20222;-85
2023/03/06 00:56:22;;;;;;;22.10;13.80;;;;;;;3.22;81.39;94030.41;5006567;28;20215;-84
2023/03/06 00:58:49;;;;;;;24.57;13.43;;;;;;;3.18;80.84;94029.97;4998027;28;20204;-85
2023/03/06 01:01:16;;;;;;;27.23;13.67;;;;;;;3.38;80.84;94060.91;5000637;28;20235;-87
2023/03/06 01:03:42;;;;;;;26.13;14.23;;;;;;;3.36;80.61;94053.41;4998060;28;20200;-86
2023/03/06 01:06:09;;;;;;;29.70;14.63;;;;;;;3.32;80.82;94038.53;4998954;28;20236;-86
2023/03/06 01:08:38;;;;;;;23.77;13.53;;;;;;;3.49;80.19;94050.13;5000246;28;20196;-88
2023/03/06 01:11:05;;;;;;;27.90;15.37;;;;;;;3.41;80.32;94032.28;4996323;28;20211;-86
2023/03/06 01:13:32;;;;;;;26.97;13.97;;;;;;;3.32;79.56;94016.22;4997184;28;20206;-87
2023/03/06 01:16:06;;;;;;;26.60;13.23;;;;;;;3.55;79.60;94046.75;5005601;28;20604;-88
2023/03/06 01:18:33;;;;;;;23.90;13.17;;;;;;;3.63;78.95;94043.25;5010794;28;20297;-88
2023/03/06 01:21:00;;;;;;;26.53;13.13;;;;;;;3.54;78.89;94016.94;5003840;28;20219;-88
2023/03/06 01:23:31;;;;;;;22.80;13.20;;;;;;;3.41;79.79;94029.72;5003281;28;20211;-87
2023/03/06 01:26:01;;;;;;;20.67;13.00;;;;;;;3.43;80.63;94045.75;5007098;28;20207;-86
2023/03/06 01:28:28;;;;;;;24.80;12.87;;;;;;;3.33;80.73;94033.22;5010894;28;20292;-87
2023/03/06 01:30:55;;;;;;;22.10;12.77;;;;;;;3.48;80.25;94035.69;5007589;28;20214;-85
2023/03/06 01:33:22;;;;;;;23.20;14.03;;;;;;;3.52;80.02;94046.38;5005731;28;20200;-85
2023/03/06 01:35:49;;;;;;;23.33;12.80;;;;;;;3.36;81.01;94038.00;5004904;28;20700;-84
2023/03/06 01:38:16;;;;;;;23.20;13.37;;;;;;;3.38;81.01;94037.78;5010923;28;20207;-86
2023/03/06 01:40:46;;;;;;;28.03;13.33;;;;;;;3.32;80.93;94038.53;5008586;28;20674;-85
2023/03/06 01:43:30;;;;;;;26.30;13.53;;;;;;;3.14;82.11;94039.06;5009168;28;20939;-86
2023/03/06 01:46:45;;;;;;;25.20;13.70;;;;;;;2.98;82.10;94028.25;5004735;28;20199;-86
2023/03/06 01:49:16;;;;;;;22.30;12.50;;;;;;;2.84;83.08;94023.03;4990129;28;20215;-86
2023/03/06 01:51:49;;;;;;;24.90;12.57;;;;;;;3.06;81.56;94028.91;5005256;28;20215;-85
2023/03/06 01:54:25;;;;;;;29.57;14.30;;;;;;;2.91;82.10;94005.13;5004535;28;20200;-87
2023/03/06 01:56:55;;;;;;;22.70;12.70;;;;;;;2.94;81.30;94003.97;5008240;28;20192;-85
2023/03/06 01:59:29;;;;;;;26.60;13.77;;;;;;;3.19;81.32;94038.47;5003065;28;20204;-87
2023/03/06 02:01:58;;;;;;;25.93;13.67;;;;;;;3.07;81.88;94029.69;5000202;28;20232;-86
2023/03/06 02:04:25;;;;;;;23.77;13.57;;;;;;;2.96;82.27;94028.44;5008580;28;20226;-84
2023/03/06 02:06:52;;;;;;;24.97;12.70;;;;;;;2.88;82.43;94032.94;5000097;28;20224;-87
2023/03/06 02:09:19;;;;;;;26.27;12.57;;;;;;;2.83;82.50;94025.78;4999524;28;20212;-88
2023/03/06 02:11:46;;;;;;;23.40;13.20;;;;;;;2.77;82.87;94017.06;5000857;28;20208;-86
2023/03/06 02:14:15;;;;;;;23.70;13.10;;;;;;;2.86;82.93;94030.53;5008093;28;20597;-89
2023/03/06 02:16:43;;;;;;;24.90;12.63;;;;;;;2.86;82.24;94027.97;5008283;28;20662;-88
2023/03/06 02:19:22;;;;;;;24.77;12.90;;;;;;;2.81;83.05;94032.88;5002964;28;20199;-89
2023/03/06 02:21:49;;;;;;;28.10;13.30;;;;;;;2.77;83.04;94008.59;5004552;28;20222;-88
2023/03/06 02:24:27;;;;;;;23.33;12.83;;;;;;;2.90;83.38;94029.19;5010649;28;20214;-85
2023/03/06 02:26:58;;;;;;;25.57;13.20;;;;;;;2.66;83.41;93991.13;5002585;28;20203;-86
2023/03/06 02:29:28;;;;;;;24.80;13.33;;;;;;;2.88;83.10;94020.91;5011508;28;20234;-86
2023/03/06 02:31:55;;;;;;;24.97;12.67;;;;;;;2.84;83.50;94033.31;5011118;28;20215;-86
2023/03/06 02:34:55;;;;;;;20.97;12.00;;;;;;;2.78;83.49;94035.81;5001567;28;20215;-86
2023/03/06 02:37:24;;;;;;;23.37;12.43;;;;;;;2.87;83.30;94037.25;5008563;28;20215;-86
2023/03/06 02:39:57;;;;;;;20.83;13.00;;;;;;;2.82;83.05;94048.09;5005215;28;20203;-85
2023/03/06 02:42:28;;;;;;;25.07;13.17;;;;;;;2.79;82.94;94042.53;5005033;28;20709;-83
2023/03/06 02:44:56;;;;;;;25.60;13.10;;;;;;;2.80;83.17;94038.97;5009521;28;20203;-84
2023/03/06 02:47:23;;;;;;;23.20;12.47;;;;;;;2.89;82.98;94045.56;5007237;28;20207;-83
2023/03/06 02:49:49;;;;;;;21.63;12.20;;;;;;;2.79;82.38;94019.44;5004431;28;20199;-84
2023/03/06 02:52:16;;;;;;;22.97;12.37;;;;;;;2.75;82.86;94016.47;5005747;28;20203;-81
2023/03/06 02:54:43;;;;;;;23.03;12.50;;;;;;;2.89;83.26;94040.44;4995710;28;20207;-81
2023/03/06 02:57:10;;;;;;;26.17;12.33;;;;;;;2.80;83.46;94039.78;5008172;28;20204;-88
2023/03/06 02:59:38;;;;;;;20.53;11.80;;;;;;;2.48;83.90;93994.13;5005242;28;20677;-88
2023/03/06 03:02:06;;;;;;;23.23;12.57;;;;;;;2.73;84.03;94020.19;5003612;28;20231;-89
2023/03/06 03:04:32;;;;;;;21.37;12.23;;;;;;;2.56;84.11;93995.78;5002110;28;20211;-89
2023/03/06 03:06:59;;;;;;;20.80;11.80;;;;;;;2.88;83.59;94038.88;5003990;28;20359;-88
2023/03/06 03:09:27;;;;;;;22.83;12.67;;;;;;;2.96;83.89;94043.06;5003906;28;20207;-88
2023/03/06 03:11:54;;;;;;;23.13;12.07;;;;;;;2.87;83.76;94032.13;5004074;28;20286;-87
2023/03/06 03:14:21;;;;;;;21.90;12.53;;;;;;;2.87;83.52;94037.25;5003303;28;20208;-88
2023/03/06 03:16:49;;;;;;;25.10;12.37;;;;;;;2.78;83.51;94028.13;5009177;28;20258;-88
2023/03/06 03:19:16;;;;;;;25.20;13.13;;;;;;;2.64;83.26;94006.72;4998067;28;20234;-84
2023/03/06 03:21:43;;;;;;;23.67;13.20;;;;;;;2.97;83.77;94035.19;5003355;28;20210;-84
2023/03/06 03:24:09;;;;;;;23.07;12.60;;;;;;;3.00;83.34;94039.16;5006657;28;20207;-83
2023/03/06 03:26:36;;;;;;;21.53;12.30;;;;;;;2.74;82.99;94014.88;5004265;28;20207;-83
2023/03/06 03:29:04;;;;;;;22.90;12.27;;;;;;;2.91;83.14;94037.69;5007545;28;20215;-84
2023/03/06 03:31:31;;;;;;;19.27;11.53;;;;;;;2.97;82.62;94044.66;5000726;28;20211;-83
2023/03/06 03:34:01;;;;;;;23.40;12.13;;;;;;;2.89;83.20;94040.44;4999541;28;20215;-84
2023/03/06 03:36:28;;;;;;;22.47;12.47;;;;;;;2.97;82.73;94045.44;4995235;28;20211;-84
2023/03/06 03:38:56;;;;;;;21.80;12.60;;;;;;;2.86;83.44;94030.53;5010240;28;20204;-82
2023/03/06 03:41:23;;;;;;;22.93;12.47;;;;;;;2.87;83.72;94044.97;5001933;28;20269;-81
2023/03/06 03:43:50;;;;;;;27.53;13.07;;;;;;;2.95;84.20;94036.31;5005624;28;20234;-82
2023/03/06 03:46:17;;;;;;;25.57;13.83;;;;;;;3.10;84.28;94049.88;5005328;28;20208;-82
2023/03/06 03:48:43;;;;;;;30.33;17.07;;;;;;;3.19;84.39;94038.47;4998832;28;20223;-82
2023/03/06 03:51:15;;;;;;;36.93;20.53;;;;;;;3.17;84.44;94045.56;5005922;28;20675;-83
2023/03/06 03:53:43;;;;;;;39.40;21.03;;;;;;;3.15;83.90;94035.47;5003240;28;20208;-82
2023/03/06 03:56:11;;;;;;;41.57;20.73;;;;;;;3.35;83.94;94062.06;4998484;28;20282;-82
2023/03/06 03:58:38;;;;;;;44.33;19.73;;;;;;;3.24;84.23;94065.16;4998992;28;20258;-81
2023/03/06 04:01:05;;;;;;;33.23;18.13;;;;;;;3.36;84.32;94062.88;5008454;28;20226;-82
2023/03/06 04:03:32;;;;;;;34.83;16.93;;;;;;;3.37;84.41;94069.59;4999294;28;20234;-83
2023/03/06 04:06:00;;;;;;;29.00;15.83;;;;;;;3.34;84.01;94062.28;5002664;28;20207;-84
2023/03/06 04:08:28;;;;;;;30.07;15.73;;;;;;;3.37;84.33;94065.25;5006474;28;20199;-85
2023/03/06 04:10:55;;;;;;;27.07;14.70;;;;;;;3.44;84.29;94067.84;5004958;28;20799;-85
2023/03/06 04:13:23;;;;;;;25.63;15.43;;;;;;;3.32;84.40;94052.19;5011520;28;20629;-85
2023/03/06 04:15:51;;;;;;;29.30;14.53;;;;;;;3.49;84.04;94069.88;5001916;28;20219;-85
2023/03/06 04:18:20;;;;;;;23.43;14.33;;;;;;;3.42;83.81;94072.38;5000605;28;20286;-84
2023/03/06 04:20:47;;;;;;;23.67;14.47;;;;;;;3.36;84.33;94068.81;4994052;28;20671;-85
2023/03/06 04:23:15;;;;;;;28.53;14.83;;;;;;;3.41;83.86;94071.59;5002157;28;20687;-83
2023/03/06 04:25:43;;;;;;;26.57;14.33;;;;;;;3.43;83.78;94079.88;5007019;28;20207;-84
2023/03/06 04:28:11;;;;;;;23.37;13.43;;;;;;;3.46;84.57;94078.75;5004053;28;20204;-83
2023/03/06 04:30:39;;;;;;;30.00;14.73;;;;;;;3.29;83.51;94046.66;5004350;28;20207;-82
2023/03/06 04:33:06;;;;;;;27.07;14.43;;;;;;;3.47;82.92;94085.44;5003982;28;21552;-82
2023/03/06 04:35:33;;;;;;;25.87;14.10;;;;;;;3.37;82.81;94075.53;5002480;28;20211;-83
2023/03/06 04:37:59;;;;;;;24.40;14.57;;;;;;;3.20;83.92;94058.03;4999174;28;20591;-82
2023/03/06 04:40:29;;;;;;;34.17;16.57;;;;;;;3.42;83.97;94095.50;4995055;28;20216;-87
2023/03/06 04:42:59;;;;;;;33.20;17.17;;;;;;;3.38;84.39;94066.03;4999706;28;20237;-85
2023/03/06 04:45:27;;;;;;;34.83;19.33;;;;;;;3.52;83.86;94077.97;5002052;28;20231;-88
2023/03/06 04:47:54;;;;;;;41.77;19.93;;;;;;;3.46;84.32;94060.78;5000577;28;20200;-89
2023/03/06 04:50:22;;;;;;;44.80;22.90;;;;;;;3.62;83.99;94078.44;5003173;28;20200;-89
2023/03/06 04:52:49;;;;;;;53.27;26.03;;;;;;;3.66;83.65;94079.66;5003997;28;20211;-89
2023/03/06 04:55:17;;;;;;;53.77;24.30;;;;;;;3.70;84.23;94074.91;5000977;28;20219;-88
2023/03/06 04:57:46;;;;;;;51.30;23.13;;;;;;;3.80;83.70;94094.16;5006065;28;20667;-88
2023/03/06 05:00:17;;;;;;;36.27;20.40;;;;;;;3.77;83.47;94089.38;5010620;28;20230;-89
2023/03/06 05:02:45;;;;;;;32.27;17.13;;;;;;;3.75;83.50;94088.75;5012038;28;20261;-88
2023/03/06 05:05:13;;;;;;;32.83;16.90;;;;;;;3.60;83.20;94056.47;5007236;28;20203;-87
2023/03/06 05:07:41;;;;;;;28.30;15.77;;;;;;;3.73;83.14;94077.88;5009642;28;20232;-88
2023/03/06 05:10:12;;;;;;;29.10;16.67;;;;;;;3.49;83.49;94054.47;5011581;28;20250;-80
2023/03/06 05:12:39;;;;;;;36.77;16.27;;;;;;;3.70;83.43;94090.31;5005101;28;20201;-84
2023/03/06 05:15:08;;;;;;;32.20;15.67;;;;;;;3.71;84.00;94087.56;5002847;28;20698;-84
2023/03/06 05:17:37;;;;;;;33.93;16.60;;;;;;;3.69;84.19;94075.91;5006931;28;20669;-82
2023/03/06 05:20:06;;;;;;;30.73;16.67;;;;;;;3.76;83.52;94095.50;5010102;28;20235;-86
2023/03/06 05:22:33;;;;;;;36.10;16.37;;;;;;;3.70;84.54;94098.03;5003517;28;20211;-87
2023/03/06 05:25:00;;;;;;;36.17;17.33;;;;;;;3.49;83.82;94052.69;5004687;28;20218;-85
2023/03/06 05:27:27;;;;;;;30.07;16.53;;;;;;;3.72;83.29;94086.56;5002015;28;20211;-88
2023/03/06 05:29:54;;;;;;;37.13;16.80;;;;;;;3.49;83.61;94049.31;5011697;28;20211;-85
2023/03/06 05:32:22;;;;;;;31.17;16.80;;;;;;;3.81;83.63;94092.38;5011985;28;20218;-82
2023/03/06 05:34:50;;;;;;;32.40;16.63;;;;;;;3.74;82.73;94094.09;5009220;28;20203;-85
2023/03/06 05:37:17;;;;;;;37.73;17.50;;;;;;;3.79;83.62;94102.81;5005069;28;20219;-84
2023/03/06 05:39:44;;;;;;;41.47;17.60;;;;;;;3.76;84.35;94087.78;4983186;28;20218;-84
2023/03/06 05:42:11;;;;;;;36.77;18.23;;;;;;;3.90;83.48;94101.47;5011172;28;20211;-81
2023/03/06 05:44:40;;;;;;;35.30;17.87;;;;;;;3.90;83.59;94104.84;5006036;28;20234;-80
2023/03/06 05:47:07;;;;;;;38.13;16.83;;;;;;;3.82;83.28;94081.09;5004400;28;20748;-81
2023/03/06 05:49:36;;;;;;;29.53;16.63;;;;;;;4.03;83.08;94111.84;5006428;28;20757;-90
2023/03/06 05:52:08;;;;;;;31.27;16.33;;;;;;;4.10;82.29;94114.44;5012745;28;20210;-89
2023/03/06 05:54:36;;;;;;;28.97;16.30;;;;;;;4.14;83.08;94113.06;5016018;28;20298;-82
2023/03/06 05:57:05;;;;;;;33.00;16.27;;;;;;;4.09;82.44;94098.22;5008113;28;20672;-81
2023/03/06 05:59:34;;;;;;;27.50;15.87;;;;;;;4.18;82.56;94120.22;5006447;28;20589;-79
2023/03/06 06:02:04;;;;;;;30.80;16.37;;;;;;;4.19;82.25;94120.97;5009021;28;20260;-86
2023/03/06 06:04:31;;;;;;;33.93;16.53;;;;;;;4.26;81.47;94124.38;5001553;28;20236;-87
2023/03/06 06:07:04;;;;;;;29.20;15.77;;;;;;;4.24;81.12;94124.56;5003019;28;20243;-85
2023/03/06 06:09:32;;;;;;;31.77;16.23;;;;;;;4.15;81.40;94128.31;4999554;28;20297;-86
2023/03/06 06:12:02;;;;;;;30.67;15.90;;;;;;;4.21;81.75;94132.69;5014010;28;20208;-85
2023/03/06 06:14:30;;;;;;;32.67;15.80;;;;;;;4.35;80.77;94134.31;5012981;28;20207;-86
2023/03/06 06:16:57;;;;;;;29.53;15.50;;;;;;;4.37;80.29;94134.91;5009636;28;20219;-85
2023/03/06 06:19:24;;;;;;;26.10;15.60;;;;;;;4.41;79.88;94137.91;5000764;28;20203;-85
2023/03/06 06:21:52;;;;;;;29.03;15.93;;;;;;;4.34;80.24;94125.00;5003917;28;20239;-86
2023/03/06 06:27:17;;;;;;;27.83;15.83;;;;;;;4.34;79.57;94142.22;5003542;28;20248;-86
2023/03/06 06:29:44;;;;;;;33.97;15.90;;;;;;;4.22;79.92;94120.59;5004781;28;20205;-85
2023/03/06 06:32:14;;;;;;;35.40;16.87;;;;;;;4.47;80.89;94148.19;4999721;28;20212;-85
2023/03/06 06:34:41;;;;;;;29.20;15.53;;;;;;;4.44;80.00;94142.66;5008996;28;20205;-86
2023/03/06 06:37:08;;;;;;;32.13;16.10;;;;;;;4.48;79.00;94146.41;5003119;28;20208;-85
2023/03/06 06:39:36;;;;;;;29.50;15.50;;;;;;;4.45;79.70;94142.44;5006111;28;20209;-84
2023/03/06 06:42:03;;;;;;;32.80;17.20;;;;;;;4.47;78.95;94144.84;5002590;28;20201;-85
2023/03/06 06:44:30;;;;;;;32.27;16.27;;;;;;;4.47;79.25;94145.63;5002371;28;20231;-86
2023/03/06 06:46:57;;;;;;;29.00;16.37;;;;;;;4.35;79.50;94134.31;5009655;28;20214;-87
2023/03/06 06:49:23;;;;;;;31.17;16.20;;;;;;;4.48;79.37;94154.13;5009169;28;20210;-86
2023/03/06 06:51:50;;;;;;;31.13;16.07;;;;;;;4.48;79.34;94157.50;5019302;28;20217;-87
2023/03/06 06:54:17;;;;;;;29.03;15.83;;;;;;;4.46;79.04;94148.41;5006118;28;20201;-86
2023/03/06 06:56:45;;;;;;;29.20;15.33;;;;;;;4.55;78.73;94150.63;5002416;28;20667;-86
2023/03/06 06:59:12;;;;;;;31.70;15.13;;;;;;;4.62;78.32;94165.28;5005440;28;20226;-85
2023/03/06 07:01:39;;;;;;;26.50;15.33;;;;;;;4.45;78.33;94151.94;5010930;28;20200;-83
2023/03/06 07:04:06;;;;;;;35.20;15.90;;;;;;;4.54;78.02;94168.81;5031525;23;20241;-81
2023/03/06 07:06:32;;;;;;;31.67;15.93;;;;;;;4.56;78.02;94165.03;5024058;28;20200;-79
2023/03/06 07:08:59;;;;;;;40.97;16.57;;;;;;;4.57;78.63;94164.06;5025682;28;20273;-79
2023/03/06 07:11:26;;;;;;;25.87;15.57;;;;;;;4.67;77.72;94165.50;5025788;28;20211;-79
2023/03/06 07:13:55;;;;;;;30.77;17.03;;;;;;;4.68;77.56;94160.13;5027579;28;20196;-79
2023/03/06 07:16:22;;;;;;;38.13;17.67;;;;;;;4.66;78.10;94169.84;5024830;28;20736;-84
2023/03/06 07:18:49;;;;;;;31.87;16.67;;;;;;;4.70;77.97;94167.69;5020242;28;20205;-82
2023/03/06 07:21:16;;;;;;;24.80;15.00;;;;;;;4.74;77.10;94161.13;5020721;28;20973;-83
2023/03/06 07:23:43;;;;;;;27.40;15.33;;;;;;;4.76;77.42;94161.75;5030391;28;20228;-80
2023/03/06 07:26:10;;;;;;;34.60;14.83;;;;;;;4.80;77.22;94168.88;5025863;28;20697;-81
2023/03/06 07:28:37;;;;;;;27.53;15.00;;;;;;;4.89;76.13;94172.88;5018958;28;20662;-82
2023/03/06 07:31:10;;;;;;;22.63;13.63;;;;;;;4.83;75.51;94159.97;5025024;28;20224;-82
2023/03/06 07:33:37;;;;;;;29.97;13.30;;;;;;;4.80;76.39;94161.16;5016631;28;20209;-83
2023/03/06 07:36:10;;;;;;;25.77;14.20;;;;;;;4.93;75.84;94168.94;5023355;28;20212;-83
2023/03/06 07:38:37;;;;;;;25.27;13.67;;;;;;;4.87;75.95;94148.31;5023165;28;20312;-83
2023/03/06 07:41:07;;;;;;;30.87;14.73;;;;;;;4.86;74.16;94167.31;5023417;28;20213;-83
2023/03/06 07:43:33;;;;;;;26.87;14.03;;;;;;;4.94;74.59;94170.50;5023059;28;20663;-84
2023/03/06 07:46:01;;;;;;;24.23;14.20;;;;;;;5.03;74.41;94173.69;5023947;28;20209;-84
2023/03/06 07:48:29;;;;;;;27.03;15.17;;;;;;;5.03;75.80;94178.81;5021370;28;20207;-83
2023/03/06 07:50:58;;;;;;;24.90;14.20;;;;;;;5.04;75.42;94170.91;5029710;28;20200;-84
2023/03/06 07:53:25;;;;;;;23.03;13.80;;;;;;;5.15;74.05;94185.78;5017579;28;20215;-81
2023/03/06 07:55:52;;;;;;;24.67;13.70;;;;;;;5.10;74.57;94171.91;5024838;28;20222;-81
2023/03/06 07:58:19;;;;;;;23.67;13.93;;;;;;;5.13;74.41;94169.75;5019410;28;20661;-81
2023/03/06 08:00:46;;;;;;;22.27;13.63;;;;;;;5.18;75.36;94178.66;5022889;28;20203;-81
2023/03/06 08:03:13;;;;;;;27.83;13.47;;;;;;;5.21;75.38;94173.91;5024295;28;20236;-80
2023/03/06 08:05:43;;;;;;;26.80;13.07;;;;;;;5.22;74.75;94175.50;5026409;28;20213;-78
2023/03/06 08:08:10;;;;;;;27.27;13.50;;;;;;;5.23;74.25;94174.50;5024419;28;20670;-82
2023/03/06 08:10:37;;;;;;;25.97;14.13;;;;;;;5.19;74.32;94172.53;5027546;28;20206;-81
2023/03/06 08:13:04;;;;;;;29.17;14.90;;;;;;;5.34;73.68;94175.72;5023341;28;20259;-83
2023/03/06 08:15:31;;;;;;;27.87;14.10;;;;;;;5.38;74.46;94179.47;5021629;28;20657;-78
2023/03/06 08:17:58;;;;;;;29.07;15.60;;;;;;;5.49;74.74;94168.56;5022572;28;21285;-81
2023/03/06 08:20:25;;;;;;;25.87;13.77;;;;;;;5.52;73.48;94173.31;5033263;28;20196;-84
2023/03/06 08:22:53;;;;;;;22.20;12.90;;;;;;;5.55;73.22;94165.19;5034188;28;20611;-78
2023/03/06 08:25:20;;;;;;;27.90;14.77;;;;;;;5.68;72.88;94168.53;5031192;28;20237;-80
2023/03/06 08:27:56;;;;;;;26.73;13.80;;;;;;;5.71;72.27;94154.47;5038627;28;20573;-83
2023/03/06 08:30:23;;;;;;;33.67;15.13;;;;;;;5.85;73.20;94168.13;5031844;28;20205;-81
2023/03/06 08:32:50;;;;;;;27.60;14.77;;;;;;;5.92;72.47;94166.34;5031334;28;20208;-81
2023/03/06 08:35:17;;;;;;;23.47;13.70;;;;;;;6.04;71.91;94170.72;5031426;28;20252;-80
2023/03/06 08:37:47;;;;;;;26.83;14.03;;;;;;;6.23;71.07;94163.94;5034650;28;20661;-87
2023/03/06 08:40:18;;;;;;;25.27;13.40;;;;;;;6.38;70.30;94164.44;5030724;28;20325;-81
2023/03/06 08:42:47;;;;;;;26.73;13.97;;;;;;;6.55;69.71;94169.97;5030627;28;20206;-80
2023/03/06 08:45:14;;;;;;;27.37;13.47;;;;;;;6.66;68.67;94177.84;5034355;28;20684;-81
2023/03/06 08:47:41;;;;;;;24.53;13.23;;;;;;;6.82;68.47;94174.78;5031804;28;20206;-81
2023/03/06 08:50:09;;;;;;;27.67;12.80;;;;;;;6.97;68.77;94176.31;5030924;28;20194;-81
2023/03/06 08:52:36;;;;;;;22.47;12.70;;;;;;;7.12;68.19;94172.44;5030803;28;20197;-80
2023/03/06 08:55:04;;;;;;;22.80;12.87;;;;;;;7.44;67.55;94179.16;5031417;28;20210;-86
2023/03/06 08:57:32;;;;;;;25.60;13.10;;;;;;;7.62;66.32;94160.31;5032205;28;20199;-86
2023/03/06 08:59:59;;;;;;;21.50;13.13;;;;;;;7.72;65.71;94165.03;5041730;28;20198;-86
2023/03/06 09:02:25;;;;;;;23.80;13.17;;;;;;;7.94;65.55;94166.22;5032286;28;20194;-86
2023/03/06 09:04:52;;;;;;;25.67;12.33;;;;;;;8.22;64.55;94169.13;5013027;28;20227;-86
2023/03/06 09:07:19;;;;;;;28.63;13.47;;;;;;;8.54;63.27;94172.41;5023391;28;20690;-86
2023/03/06 09:09:46;;;;;;;24.90;12.60;;;;;;;8.72;64.27;94161.22;5032890;28;20205;-85
2023/03/06 09:12:13;;;;;;;19.57;12.30;;;;;;;8.93;62.49;94158.16;5032135;28;20201;-86
2023/03/06 09:14:41;;;;;;;24.43;12.10;;;;;;;9.30;61.68;94162.22;5032309;28;20314;-86
2023/03/06 09:17:08;;;;;;;24.10;13.03;;;;;;;9.53;60.09;94167.44;5034900;28;20202;-88
2023/03/06 09:19:35;;;;;;;21.50;12.67;;;;;;;9.91;59.97;94172.22;5035083;28;20233;-86
2023/03/06 09:22:01;;;;;;;20.07;12.10;;;;;;;10.27;60.05;94173.03;5035020;28;20197;-88
2023/03/06 09:24:28;;;;;;;25.10;14.10;;;;;;;10.56;58.33;94169.50;5031993;28;20226;-80
2023/03/06 09:26:55;;;;;;;27.13;14.07;;;;;;;10.70;57.08;94161.22;5031334;28;20218;-80
2023/03/06 09:29:22;;;;;;;24.97;13.27;;;;;;;10.79;56.79;94170.22;5031334;28;20207;-80
2023/03/06 09:31:50;;;;;;;21.03;12.63;;;;;;;11.06;56.17;94174.88;5030818;28;20206;-81
2023/03/06 09:34:17;;;;;;;23.20;13.60;;;;;;;11.34;55.99;94160.03;5031173;28;20715;-80
2023/03/06 09:36:44;;;;;;;21.80;13.90;;;;;;;11.66;55.32;94169.94;5031572;28;20203;-81
2023/03/06 09:39:11;;;;;;;27.57;13.90;;;;;;;11.86;54.80;94176.25;5035762;28;20349;-80
2023/03/06 09:41:40;;;;;;;22.20;13.87;;;;;;;12.18;54.56;94173.09;5039273;28;20203;-81
2023/03/06 09:44:13;;;;;;;26.53;13.30;;;;;;;12.51;53.94;94173.81;5035369;28;20284;-80
2023/03/06 09:46:54;;;;;;;23.67;13.73;;;;;;;12.60;52.63;94165.56;5034841;28;20245;-79
2023/03/06 09:49:39;;;;;;;22.27;13.80;;;;;;;12.99;52.41;94160.03;5034838;28;20231;-81
2023/03/06 09:52:20;;;;;;;22.70;14.27;;;;;;;13.21;51.31;94154.03;5014765;28;20226;-80
2023/03/06 09:54:51;;;;;;;24.40;13.70;;;;;;;13.64;51.82;94159.94;5014979;28;20191;-81
2023/03/06 09:57:22;;;;;;;19.23;13.00;;;;;;;14.12;51.44;94161.59;5024896;28;20198;-79
2023/03/06 09:59:53;;;;;;;24.00;13.53;;;;;;;14.36;48.26;94156.78;5039369;28;20213;-80
2023/03/06 10:02:26;;;;;;;24.17;14.00;;;;;;;14.08;48.41;94157.13;5036940;28;20183;-88
2023/03/06 10:05:00;;;;;;;26.23;14.10;;;;;;;14.07;48.85;94158.16;5031928;28;20701;-89
2023/03/06 10:07:38;;;;;;;26.43;13.73;;;;;;;13.72;48.64;94127.34;5019672;28;20211;-88
2023/03/06 10:10:11;;;;;;;25.13;14.80;;;;;;;13.52;49.80;94133.19;5019651;28;20234;-87
2023/03/06 10:12:43;;;;;;;23.30;14.23;;;;;;;13.54;50.96;94143.38;5021667;28;20188;-89
2023/03/06 10:15:16;;;;;;;24.43;14.40;;;;;;;13.37;50.19;94134.88;5020158;28;20208;-88
2023/03/06 10:17:44;;;;;;;25.83;14.27;;;;;;;13.27;50.17;94140.81;5016909;28;20184;-86
2023/03/06 10:20:22;;;;;;;30.60;13.90;;;;;;;13.47;50.62;94134.97;5021153;28;20657;-86
2023/03/06 10:23:19;;;;;;;26.17;14.30;;;;;;;14.04;50.11;94132.53;5017550;28;20191;-86
2023/03/06 10:25:57;;;;;;;26.33;14.10;;;;;;;14.43;49.77;94146.88;5010212;28;20231;-87
2023/03/06 10:28:28;;;;;;;26.83;14.03;;;;;;;14.68;48.55;94133.16;5034149;28;20191;-87
2023/03/06 10:31:03;;;;;;;28.53;15.17;;;;;;;14.49;48.21;94140.66;5034866;28;20555;-89
2023/03/06 10:33:50;;;;;;;23.70;14.17;;;;;;;14.60;48.02;94131.03;5034654;28;20244;-87
2023/03/06 10:36:21;;;;;;;33.87;14.93;;;;;;;14.86;48.79;94142.38;5035161;28;20194;-87
2023/03/06 10:38:49;;;;;;;32.77;14.50;;;;;;;15.14;47.23;94128.84;5041204;28;20171;-87
2023/03/06 10:41:24;;;;;;;23.77;13.60;;;;;;;15.19;46.30;94121.00;5034153;28;20291;-80
2023/03/06 10:44:23;;;;;;;23.60;13.53;;;;;;;15.09;46.42;94129.59;5034266;28;20178;-87
2023/03/06 10:46:51;;;;;;;24.37;14.07;;;;;;;14.97;47.14;94115.19;5034497;28;20303;-88
2023/03/06 10:49:33;;;;;;;21.23;13.50;;;;;;;15.12;46.91;94118.63;5033030;28;20627;-85
2023/03/06 10:52:05;;;;;;;33.70;13.23;;;;;;;15.12;46.90;94113.38;5035036;28;20268;-86
2023/03/06 10:54:34;;;;;;;23.93;14.13;;;;;;;14.85;47.57;94104.97;5034480;28;20193;-86
2023/03/06 10:57:20;;;;;;;25.80;13.97;;;;;;;14.58;47.16;94089.44;5034657;28;20689;-86
2023/03/06 10:59:52;;;;;;;33.07;14.40;;;;;;;14.45;48.36;94097.75;5034805;28;20191;-88
2023/03/06 11:02:30;;;;;;;30.70;15.37;;;;;;;14.23;48.68;94101.53;5033423;28;20199;-86
2023/03/06 11:04:59;;;;;;;26.57;13.47;;;;;;;13.96;48.62;94093.81;5015407;28;20732;-87
2023/03/06 11:07:29;;;;;;;26.27;13.83;;;;;;;13.35;49.86;94085.53;5025800;28;20199;-87
2023/03/06 11:10:16;;;;;;;28.60;14.03;;;;;;;13.18;50.49;94074.44;5034652;28;20220;-87
2023/03/06 11:12:44;;;;;;;31.17;14.20;;;;;;;13.04;51.03;94075.84;5029791;28;20211;-87
2023/03/06 11:15:21;;;;;;;25.63;14.23;;;;;;;12.89;51.52;94073.09;5024378;28;20199;-88
2023/03/06 11:17:54;;;;;;;23.17;14.00;;;;;;;13.03;50.90;94082.88;5034683;28;20218;-88
2023/03/06 11:20:24;;;;;;;24.07;14.37;;;;;;;12.96;51.13;94058.00;5036262;28;20210;-87
2023/03/06 11:22:56;;;;;;;25.27;13.83;;;;;;;12.94;51.97;94070.50;5043452;28;20187;-88
2023/03/06 11:25:30;;;;;;;24.20;12.80;;;;;;;13.01;52.22;94055.47;5034335;28;20747;-87
2023/03/06 11:28:02;;;;;;;28.93;13.40;;;;;;;12.76;52.84;94036.94;5033515;28;20202;-86
2023/03/06 11:30:37;;;;;;;22.00;13.07;;;;;;;12.86;52.65;94043.06;5035533;28;20179;-86
2023/03/06 11:33:15;;;;;;;22.00;13.00;;;;;;;13.42;52.30;94039.13;5034215;28;20193;-80
2023/03/06 11:35:50;;;;;;;21.17;12.63;;;;;;;14.13;50.53;94035.13;5034176;28;20222;-86
2023/03/06 11:38:22;;;;;;;27.33;12.80;;;;;;;14.49;49.26;94030.03;5040012;28;20613;-87